Crossville Memorial Whitson Field
KCSV : now visible

Airfield :











YOU CAN JOIN US ON...

 
LOGIN :

Register | Disclaimer

   EN    FR    IT 

 









Legend :    VFR   Marginal VFR   IFR   Intensive IFR   Very Intensive IFR
Visi :
Ceiling :
>= 8 km
>= 3000ft
5 to 8 km
1000 to 3000 ft
1500m to 5 km
500 to 1000 ft
800 to 1500m
200 to 500 ft
< 800m
< 200 ft
Symbols :   Thunderstorms  Fog  Heavy snow  Heavy precipitations  Wind > 20 kt






- Airport Elevation : 1881 ft


KCSV - Crossville Memorial Whitson Field

CURRENT METAR :
  • 280653Z AUTO 18008G22KT 150V220 10SM FEW028 SCT110 17/13 A2973 RMK AO2 PK WND 21028/0608 LTG DSNT SE SLP054 T01720133

EXPIRED METARs :
  • 280553Z AUTO 20008G19KT 10SM SCT029 BKN038 BKN110 18/13 A2975 RMK AO2 PK WND 17026/0521 SLP062 T01780133 10189 20178 401890122 56003
  • 280453Z AUTO 18007G21KT 10SM SCT032 BKN110 18/13 A2976 RMK AO2 PK WND 19029/0420 SLP063 T01830133
  • 280353Z AUTO 10SM SCT110 18/13 A2976 RMK AO2 SLP064 T01830128
  • 280253Z AUTO 19011G24KT 10SM CLR 18/13 A2977 RMK AO2 PK WND 19028/0213 SLP067 T01830128 55006

TAF KCSV
Valid from the 28 at 06:00 until the 29 at 06:00 UTC


280520Z 2806/2906 19012G25KT P6SM BKN110
FM281000 22014G28KT P6SM OVC025 WS020/23050KT
FM281300 30020G30KT 4SM -SHRA OVC015
FM281700 32012G24KT P6SM BKN025
FM290000 33008G16KT P6SM SKC
KZTL FIR / North America



MET'MAP, your aeronautical weather chart ! - Copyright ORBIFLY December 2007 - Disclaimer

ORBIFLY MET'MAP TEAM :

Programming & Development : Alexandra Zaïnal
Original concept : Baudouin d'Aumeries
Technical & hardware support : Manuel Goepfert
Assistance : Marc-Olivier Méhu




SOURCES & CREDITS :

   NOAA       Earth
Advisory